Time;durP1;ratioP1;P1;durP2;ratioP2;P2;SDS_P1;SDS_P2;PMS_P1;PMS_P2;Temp;Humidity;BMP_temperature;BMP_pressure;BME280_temperature;BME280_humidity;BME280_pressure;Samples;Min_cycle;Max_cycle;Signal;HPM_P1;HPM_P2
2022/05/26 00:01:42;;;;;;;7.97;6.43;;;;;;;;;;5014458;28;20084;-74
2022/05/26 00:04:10;;;;;;;7.63;6.43;;;;;;;;;;5033490;28;20214;-74
2022/05/26 00:06:37;;;;;;;7.38;6.63;;;;;;;;;;5001660;28;20572;-74
2022/05/26 00:09:03;;;;;;;8.93;6.43;;;;;;;;;;5013463;28;20050;-74
2022/05/26 00:11:33;;;;;;;7.82;6.18;;;;;;;;;;5011664;28;20124;-75
2022/05/26 00:14:07;;;;;;;8.15;5.88;;;;;;;;;;5011383;28;20021;-74
2022/05/26 00:16:34;;;;;;;7.40;6.25;;;;;;;;;;5009118;28;20022;-75
2022/05/26 00:19:00;;;;;;;8.15;6.13;;;;;;;;;;5031400;28;20056;-74
2022/05/26 00:21:27;;;;;;;10.20;6.38;;;;;;;;;;5012109;28;20022;-75
2022/05/26 00:23:56;;;;;;;8.35;6.00;;;;;;;;;;5013420;28;20026;-75
2022/05/26 00:26:23;;;;;;;10.55;6.05;;;;;;;;;;5011226;28;20061;-76
2022/05/26 00:28:49;;;;;;;8.85;6.30;;;;;;;;;;5013138;28;20038;-74
2022/05/26 00:31:15;;;;;;;8.07;6.28;;;;;;;;;;5012164;28;20436;-74
2022/05/26 00:33:41;;;;;;;8.20;6.63;;;;;;;;;;5012781;28;20018;-73
2022/05/26 00:36:09;;;;;;;8.25;6.40;;;;;;;;;;5011083;28;20022;-74
2022/05/26 00:38:35;;;;;;;7.30;6.28;;;;;;;;;;4997659;28;20031;-75
2022/05/26 00:41:02;;;;;;;8.20;6.22;;;;;;;;;;4993464;28;20122;-73
2022/05/26 00:43:29;;;;;;;7.80;6.18;;;;;;;;;;5008421;28;20056;-73
2022/05/26 00:45:59;;;;;;;6.78;6.07;;;;;;;;;;5007819;28;20080;-74
2022/05/26 00:48:28;;;;;;;6.80;6.00;;;;;;;;;;4998122;28;20058;-74
2022/05/26 00:50:55;;;;;;;8.27;6.18;;;;;;;;;;5018419;28;20033;-77
2022/05/26 00:53:24;;;;;;;8.02;6.00;;;;;;;;;;5022301;28;20026;-75
2022/05/26 00:55:55;;;;;;;8.27;6.45;;;;;;;;;;5026899;28;20025;-73
2022/05/26 00:58:28;;;;;;;6.97;6.03;;;;;;;;;;5011499;28;20018;-74
2022/05/26 01:00:54;;;;;;;7.03;5.93;;;;;;;;;;5008947;28;20022;-75
2022/05/26 01:03:33;;;;;;;7.95;5.63;;;;;;;;;;5011516;28;20026;-73
2022/05/26 01:05:59;;;;;;;6.55;5.85;;;;;;;;;;5013018;28;20042;-74
2022/05/26 01:08:43;;;;;;;7.47;5.72;;;;;;;;;;5013679;28;20022;-74
2022/05/26 01:11:09;;;;;;;8.55;5.47;;;;;;;;;;5016621;28;20056;-75
2022/05/26 01:13:38;;;;;;;7.97;5.57;;;;;;;;;;5016504;28;20041;-73
2022/05/26 01:16:08;;;;;;;7.88;6.70;;;;;;;;;;5011550;28;20080;-74
2022/05/26 01:18:42;;;;;;;12.10;6.80;;;;;;;;;;5015149;28;20025;-78
2022/05/26 01:21:28;;;;;;;7.07;5.72;;;;;;;;;;5015189;28;20599;-78
2022/05/26 01:24:07;;;;;;;7.63;5.50;;;;;;;;;;5016458;28;20025;-74
2022/05/26 01:26:36;;;;;;;6.72;5.25;;;;;;;;;;5005723;28;20113;-74
2022/05/26 01:29:21;;;;;;;6.05;5.22;;;;;;;;;;4997138;28;20557;-74
2022/05/26 01:31:49;;;;;;;7.35;5.20;;;;;;;;;;5005676;28;20030;-75
2022/05/26 01:34:22;;;;;;;7.43;4.90;;;;;;;;;;5005948;28;20081;-73
2022/05/26 01:37:09;;;;;;;5.10;4.60;;;;;;;;;;5014803;28;20026;-74
2022/05/26 01:39:44;;;;;;;6.18;4.90;;;;;;;;;;5016481;28;20025;-79
2022/05/26 01:42:29;;;;;;;5.85;4.68;;;;;;;;;;4996305;28;20173;-74
2022/05/26 01:45:24;;;;;;;7.32;4.60;;;;;;;;;;5028240;28;20065;-75
2022/05/26 01:48:14;;;;;;;4.90;4.43;;;;;;;;;;4974514;28;20035;-75
2022/05/26 01:50:48;;;;;;;7.22;4.70;;;;;;;;;;4975403;28;20110;-75
2022/05/26 01:53:20;;;;;;;5.15;4.10;;;;;;;;;;4976420;28;20037;-74
2022/05/26 01:55:59;;;;;;;5.20;4.10;;;;;;;;;;4977866;28;20485;-73
2022/05/26 01:58:30;;;;;;;5.10;4.00;;;;;;;;;;4983939;28;20451;-76
2022/05/26 02:00:56;;;;;;;4.55;3.70;;;;;;;;;;4975657;28;20046;-74
2022/05/26 02:03:24;;;;;;;5.72;4.05;;;;;;;;;;4980324;28;20511;-75
2022/05/26 02:05:50;;;;;;;7.18;4.07;;;;;;;;;;4994347;28;20047;-74
2022/05/26 02:08:24;;;;;;;4.68;3.58;;;;;;;;;;4984375;28;20027;-73
2022/05/26 02:10:53;;;;;;;5.10;3.70;;;;;;;;;;4975308;28;20047;-74
2022/05/26 02:13:30;;;;;;;6.68;3.70;;;;;;;;;;4980421;28;20042;-74
2022/05/26 02:16:00;;;;;;;4.30;3.50;;;;;;;;;;4984717;28;20035;-75
2022/05/26 02:18:31;;;;;;;4.43;3.85;;;;;;;;;;4962689;28;20046;-75
2022/05/26 02:20:58;;;;;;;5.15;3.42;;;;;;;;;;4975940;28;20031;-78
2022/05/26 02:23:40;;;;;;;4.00;3.30;;;;;;;;;;4996148;28;20044;-75
2022/05/26 02:26:10;;;;;;;3.22;2.92;;;;;;;;;;4994268;28;20031;-76
2022/05/26 02:31:23;;;;;;;3.30;2.70;;;;;;;;;;5016903;28;20451;-75
2022/05/26 02:33:51;;;;;;;3.20;2.72;;;;;;;;;;5012672;28;20033;-73
2022/05/26 02:36:17;;;;;;;3.88;2.85;;;;;;;;;;5022531;28;20036;-74
2022/05/26 02:38:43;;;;;;;5.05;2.70;;;;;;;;;;5002844;28;20030;-73
2022/05/26 02:41:09;;;;;;;3.15;2.80;;;;;;;;;;5015631;28;20029;-78
2022/05/26 02:43:35;;;;;;;3.50;2.47;;;;;;;;;;5020840;28;20056;-74
2022/05/26 02:46:10;;;;;;;7.43;2.80;;;;;;;;;;4997998;28;20042;-73
2022/05/26 02:48:48;;;;;;;3.97;2.35;;;;;;;;;;4997201;28;20023;-74
2022/05/26 02:51:23;;;;;;;4.93;2.70;;;;;;;;;;5003660;28;20125;-74
2022/05/26 02:54:00;;;;;;;2.92;2.40;;;;;;;;;;4997901;28;20115;-74
2022/05/26 02:56:45;;;;;;;4.20;2.42;;;;;;;;;;5004863;28;20042;-73
2022/05/26 02:59:14;;;;;;;2.95;2.65;;;;;;;;;;5017631;28;20022;-74
2022/05/26 03:02:00;;;;;;;5.80;2.60;;;;;;;;;;5014641;28;20030;-74
2022/05/26 03:04:29;;;;;;;3.33;2.67;;;;;;;;;;5016372;28;20466;-74
2022/05/26 03:06:57;;;;;;;5.20;2.50;;;;;;;;;;5013704;28;20105;-74
2022/05/26 03:09:23;;;;;;;4.72;2.58;;;;;;;;;;4999523;28;20446;-73
2022/05/26 03:11:54;;;;;;;5.10;2.60;;;;;;;;;;5013804;28;20042;-73
2022/05/26 03:14:23;;;;;;;2.80;2.35;;;;;;;;;;5017594;28;20034;-74
2022/05/26 03:16:49;;;;;;;3.15;2.58;;;;;;;;;;5010811;28;20143;-73
2022/05/26 03:19:16;;;;;;;4.10;2.40;;;;;;;;;;5020109;28;20021;-75
2022/05/26 03:21:42;;;;;;;4.90;2.70;;;;;;;;;;5019803;28;20032;-73
2022/05/26 03:24:09;;;;;;;6.35;2.20;;;;;;;;;;5017980;28;20061;-74
2022/05/26 03:26:35;;;;;;;3.97;2.55;;;;;;;;;;5020345;28;20034;-74
2022/05/26 03:29:01;;;;;;;5.03;2.20;;;;;;;;;;4998954;28;20468;-75
2022/05/26 03:31:27;;;;;;;4.55;2.08;;;;;;;;;;5012484;28;20399;-78
2022/05/26 03:42:09;;;;;;;4.53;2.10;;;;;;;;;;4999997;28;20388;-76
2022/05/26 03:44:35;;;;;;;3.30;2.00;;;;;;;;;;4993427;28;20062;-74
2022/05/26 03:47:02;;;;;;;4.07;1.90;;;;;;;;;;5000491;28;20026;-77
2022/05/26 03:49:28;;;;;;;3.90;2.08;;;;;;;;;;5000769;28;20045;-74
2022/05/26 03:51:57;;;;;;;7.50;2.63;;;;;;;;;;4994712;28;20030;-74
2022/05/26 03:54:23;;;;;;;7.82;2.40;;;;;;;;;;5011573;28;20028;-75
2022/05/26 03:56:49;;;;;;;5.50;2.53;;;;;;;;;;5018049;28;20033;-74
2022/05/26 03:59:15;;;;;;;5.80;2.55;;;;;;;;;;5017284;28;20126;-78
2022/05/26 04:01:44;;;;;;;3.80;2.30;;;;;;;;;;5016268;28;20054;-73
2022/05/26 04:04:10;;;;;;;2.75;2.08;;;;;;;;;;5015367;28;20022;-77
2022/05/26 04:06:36;;;;;;;2.95;1.92;;;;;;;;;;5016262;28;20036;-75
2022/05/26 04:09:05;;;;;;;4.25;2.13;;;;;;;;;;5013262;28;20028;-76
2022/05/26 04:11:31;;;;;;;5.80;2.30;;;;;;;;;;5023486;28;20500;-74
2022/05/26 04:13:57;;;;;;;5.18;2.42;;;;;;;;;;4998099;28;20407;-74
2022/05/26 04:16:24;;;;;;;3.55;2.30;;;;;;;;;;5015638;28;20101;-75
2022/05/26 04:18:52;;;;;;;4.30;2.30;;;;;;;;;;5005553;28;20046;-74
2022/05/26 04:21:18;;;;;;;5.25;2.30;;;;;;;;;;5000766;28;20056;-75
2022/05/26 04:23:44;;;;;;;3.10;2.10;;;;;;;;;;5013951;28;20032;-78
2022/05/26 04:26:10;;;;;;;5.25;2.30;;;;;;;;;;5011566;28;20034;-75
2022/05/26 04:28:37;;;;;;;4.72;2.50;;;;;;;;;;5027859;28;20030;-74
2022/05/26 04:31:03;;;;;;;4.85;2.00;;;;;;;;;;5026980;28;20085;-74
2022/05/26 04:33:30;;;;;;;4.22;2.40;;;;;;;;;;5026301;28;20045;-74
2022/05/26 04:35:56;;;;;;;3.33;2.60;;;;;;;;;;5020229;28;20072;-75
2022/05/26 04:38:22;;;;;;;3.90;2.55;;;;;;;;;;5015415;28;20030;-72
2022/05/26 04:41:06;;;;;;;4.45;2.50;;;;;;;;;;5017537;28;20041;-82
2022/05/26 04:43:33;;;;;;;2.42;2.20;;;;;;;;;;5017188;28;20379;-74
2022/05/26 04:45:59;;;;;;;4.45;2.50;;;;;;;;;;5019460;28;20038;-74
2022/05/26 04:48:25;;;;;;;8.23;2.30;;;;;;;;;;5019410;28;20052;-74
2022/05/26 04:50:52;;;;;;;4.45;2.55;;;;;;;;;;5011567;28;20026;-75
2022/05/26 04:53:19;;;;;;;5.25;2.33;;;;;;;;;;5018064;28;20029;-75
2022/05/26 04:55:46;;;;;;;4.35;2.40;;;;;;;;;;5017076;28;20022;-85
2022/05/26 04:58:12;;;;;;;6.50;2.53;;;;;;;;;;4998697;28;20045;-75
2022/05/26 05:00:40;;;;;;;4.07;2.28;;;;;;;;;;5016713;28;20167;-85
2022/05/26 05:03:06;;;;;;;4.03;2.33;;;;;;;;;;4997414;28;20034;-76
2022/05/26 05:05:32;;;;;;;2.55;2.10;;;;;;;;;;4994472;28;20037;-75
2022/05/26 05:07:58;;;;;;;2.35;2.15;;;;;;;;;;4999093;28;20030;-75
2022/05/26 05:10:24;;;;;;;7.20;2.75;;;;;;;;;;5009948;28;20436;-85
2022/05/26 05:12:51;;;;;;;6.03;2.30;;;;;;;;;;5009891;28;20416;-76
2022/05/26 05:15:27;;;;;;;4.38;2.20;;;;;;;;;;5012163;28;20026;-74
2022/05/26 05:17:54;;;;;;;3.17;2.60;;;;;;;;;;4996193;28;20392;-73
2022/05/26 05:20:20;;;;;;;4.10;2.40;;;;;;;;;;5012217;28;20033;-73
2022/05/26 05:22:48;;;;;;;4.25;2.33;;;;;;;;;;5015651;28;20103;-75
2022/05/26 05:25:21;;;;;;;5.85;2.28;;;;;;;;;;5013014;28;20053;-73
2022/05/26 05:28:13;;;;;;;5.60;2.13;;;;;;;;;;5008761;28;20022;-74
2022/05/26 05:30:42;;;;;;;5.32;2.40;;;;;;;;;;4940201;29;20465;-71
2022/05/26 05:33:13;;;;;;;7.38;2.20;;;;;;;;;;4940203;29;20115;-77
2022/05/26 05:35:43;;;;;;;4.18;2.60;;;;;;;;;;4932332;29;20049;-72
2022/05/26 05:38:09;;;;;;;4.50;2.30;;;;;;;;;;4950932;28;20463;-71
2022/05/26 05:40:36;;;;;;;5.93;2.50;;;;;;;;;;4933335;29;20126;-72
2022/05/26 05:43:02;;;;;;;6.80;2.65;;;;;;;;;;4941785;29;20019;-74
2022/05/26 05:45:28;;;;;;;7.43;2.50;;;;;;;;;;4933641;29;20526;-78
2022/05/26 05:47:54;;;;;;;7.93;2.60;;;;;;;;;;4948123;28;20184;-78
2022/05/26 05:50:20;;;;;;;4.93;2.58;;;;;;;;;;4941027;29;20039;-73
2022/05/26 05:52:46;;;;;;;7.50;2.30;;;;;;;;;;4945143;29;20525;-72
2022/05/26 05:55:17;;;;;;;2.58;2.00;;;;;;;;;;4938513;28;20123;-72
2022/05/26 05:57:43;;;;;;;4.30;2.30;;;;;;;;;;4950519;28;20035;-71
2022/05/26 06:00:10;;;;;;;10.20;2.35;;;;;;;;;;4940858;29;20037;-72
2022/05/26 06:02:38;;;;;;;5.72;2.20;;;;;;;;;;4933285;29;20035;-76
2022/05/26 06:05:05;;;;;;;4.38;2.75;;;;;;;;;;4938810;29;20148;-75
2022/05/26 06:07:31;;;;;;;7.25;2.42;;;;;;;;;;4972843;28;20053;-71
2022/05/26 06:09:57;;;;;;;2.53;1.80;;;;;;;;;;5013120;28;20026;-71
2022/05/26 06:12:23;;;;;;;3.95;2.00;;;;;;;;;;5015853;28;20089;-71
2022/05/26 06:14:49;;;;;;;7.15;2.42;;;;;;;;;;5012829;28;20045;-71
2022/05/26 06:17:16;;;;;;;4.47;2.03;;;;;;;;;;5011175;28;20109;-70
2022/05/26 06:19:42;;;;;;;4.10;2.05;;;;;;;;;;4997476;28;20026;-75
2022/05/26 06:22:13;;;;;;;3.83;1.85;;;;;;;;;;5014231;28;20049;-80
2022/05/26 06:24:40;;;;;;;3.55;1.90;;;;;;;;;;5014870;28;20452;-75
2022/05/26 06:29:55;;;;;;;5.10;1.80;;;;;;;;;;5006896;28;20084;-72
2022/05/26 06:37:52;;;;;;;3.40;2.05;;;;;;;;;;5014150;28;20045;-82
2022/05/26 06:40:19;;;;;;;9.73;2.10;;;;;;;;;;4994001;28;20022;-75
2022/05/26 06:42:45;;;;;;;2.75;1.70;;;;;;;;;;5014359;28;20026;-73
2022/05/26 06:45:12;;;;;;;2.88;1.70;;;;;;;;;;5016405;28;20026;-74
2022/05/26 06:47:38;;;;;;;7.75;2.10;;;;;;;;;;5012856;28;20125;-73
2022/05/26 06:50:05;;;;;;;5.85;2.17;;;;;;;;;;5016615;28;20029;-72
2022/05/26 06:52:31;;;;;;;4.72;2.05;;;;;;;;;;5021899;28;20033;-77
2022/05/26 06:54:58;;;;;;;4.13;2.33;;;;;;;;;;4998551;28;20049;-82
2022/05/26 06:57:25;;;;;;;7.38;2.17;;;;;;;;;;4999542;28;20041;-76
2022/05/26 06:59:51;;;;;;;3.13;1.95;;;;;;;;;;5022609;28;20022;-78
2022/05/26 07:02:17;;;;;;;3.63;2.10;;;;;;;;;;5027142;28;20026;-73
2022/05/26 07:04:44;;;;;;;3.00;2.00;;;;;;;;;;5012486;28;20025;-76
2022/05/26 07:07:12;;;;;;;4.18;2.20;;;;;;;;;;4997830;28;20070;-74
2022/05/26 07:09:39;;;;;;;7.18;2.03;;;;;;;;;;5020469;28;20025;-70
2022/05/26 07:12:05;;;;;;;16.23;2.67;;;;;;;;;;5020387;28;20534;-72
2022/05/26 07:14:31;;;;;;;3.92;2.25;;;;;;;;;;5018327;28;20025;-75
2022/05/26 07:16:57;;;;;;;9.75;2.53;;;;;;;;;;5012024;28;20107;-75
2022/05/26 07:19:23;;;;;;;5.70;2.20;;;;;;;;;;5021192;28;20030;-75
2022/05/26 07:21:49;;;;;;;4.35;2.33;;;;;;;;;;5022732;28;20457;-77
2022/05/26 07:24:20;;;;;;;6.75;2.25;;;;;;;;;;5019138;28;20020;-80
2022/05/26 07:26:47;;;;;;;3.63;2.20;;;;;;;;;;4995270;28;20054;-84
2022/05/26 07:29:14;;;;;;;4.20;2.22;;;;;;;;;;5000068;28;20096;-91
2022/05/26 07:31:40;;;;;;;8.20;2.28;;;;;;;;;;4998718;28;20036;-87
2022/05/26 07:34:08;;;;;;;4.03;2.20;;;;;;;;;;4979655;28;20045;-76
2022/05/26 07:42:07;;;;;;;5.07;2.80;;;;;;;;;;5018770;28;20040;-84
2022/05/26 07:44:35;;;;;;;7.25;3.28;;;;;;;;;;5010202;28;20034;-80
2022/05/26 07:47:02;;;;;;;5.05;2.22;;;;;;;;;;5023230;28;20030;-74
2022/05/26 07:49:28;;;;;;;4.00;2.35;;;;;;;;;;5003940;28;20108;-77
2022/05/26 07:51:56;;;;;;;5.25;2.20;;;;;;;;;;5024962;28;20021;-77
2022/05/26 07:54:22;;;;;;;6.95;2.28;;;;;;;;;;5015096;28;20018;-81
2022/05/26 07:56:49;;;;;;;4.97;2.15;;;;;;;;;;5014554;28;20468;-81
2022/05/26 07:59:15;;;;;;;3.10;1.90;;;;;;;;;;5010354;28;20037;-77
2022/05/26 08:01:41;;;;;;;3.35;1.90;;;;;;;;;;5016446;28;20108;-81
2022/05/26 08:04:07;;;;;;;10.35;2.78;;;;;;;;;;5018594;28;20475;-83
2022/05/26 08:06:33;;;;;;;3.90;2.20;;;;;;;;;;5003329;28;20045;-82
2022/05/26 08:08:59;;;;;;;5.28;2.17;;;;;;;;;;5002647;28;20076;-79
2022/05/26 08:11:26;;;;;;;4.40;2.10;;;;;;;;;;5013284;28;20454;-80
2022/05/26 08:13:52;;;;;;;3.33;1.90;;;;;;;;;;5000094;28;20022;-78
2022/05/26 08:16:18;;;;;;;5.75;2.08;;;;;;;;;;4996778;28;20089;-79
2022/05/26 08:18:44;;;;;;;5.00;2.03;;;;;;;;;;5007359;28;20026;-82
2022/05/26 08:21:11;;;;;;;7.47;2.20;;;;;;;;;;4989057;28;20033;-84
2022/05/26 08:23:37;;;;;;;2.22;1.90;;;;;;;;;;4996155;28;20120;-80
2022/05/26 08:26:04;;;;;;;5.28;1.90;;;;;;;;;;5012252;28;20033;-80
2022/05/26 08:28:30;;;;;;;3.72;1.77;;;;;;;;;;5010111;28;20136;-81
2022/05/26 08:30:57;;;;;;;6.55;2.10;;;;;;;;;;5009976;28;20040;-77
2022/05/26 08:33:23;;;;;;;5.50;2.08;;;;;;;;;;4992159;28;20030;-73
2022/05/26 08:35:49;;;;;;;4.28;1.83;;;;;;;;;;4997776;28;20034;-72
2022/05/26 08:38:15;;;;;;;3.50;1.73;;;;;;;;;;5013135;28;20068;-71
2022/05/26 08:40:43;;;;;;;3.10;1.83;;;;;;;;;;5007122;28;20384;-80
2022/05/26 08:43:15;;;;;;;5.15;2.05;;;;;;;;;;5008892;28;20128;-80
2022/05/26 08:45:45;;;;;;;8.70;2.15;;;;;;;;;;4999876;28;20053;-80
2022/05/26 08:48:12;;;;;;;8.10;1.90;;;;;;;;;;4984881;28;20026;-82
2022/05/26 08:50:40;;;;;;;2.53;1.98;;;;;;;;;;5008781;28;20026;-83
2022/05/26 08:53:20;;;;;;;4.15;1.92;;;;;;;;;;4991743;28;20033;-73
2022/05/26 08:55:48;;;;;;;6.38;2.08;;;;;;;;;;4990500;28;20116;-74
2022/05/26 08:58:14;;;;;;;3.85;1.73;;;;;;;;;;5009450;28;20057;-75
2022/05/26 09:00:41;;;;;;;6.80;2.28;;;;;;;;;;5010221;28;20076;-79
2022/05/26 09:03:27;;;;;;;7.15;2.15;;;;;;;;;;4995752;28;20026;-74
2022/05/26 09:06:12;;;;;;;1.90;1.38;;;;;;;;;;5010155;28;20042;-73
2022/05/26 09:14:20;;;;;;;4.30;1.50;;;;;;;;;;5018698;28;20081;-71
2022/05/26 09:17:01;;;;;;;5.55;1.90;;;;;;;;;;5012849;28;20546;-70
2022/05/26 09:19:57;;;;;;;6.15;2.13;;;;;;;;;;5019373;28;20464;-70
2022/05/26 09:22:28;;;;;;;5.65;2.10;;;;;;;;;;5009767;28;20038;-79
2022/05/26 09:24:55;;;;;;;5.90;1.90;;;;;;;;;;5014337;28;20033;-79
2022/05/26 09:27:27;;;;;;;6.07;2.30;;;;;;;;;;5024853;28;20076;-69
2022/05/26 09:29:53;;;;;;;5.40;1.93;;;;;;;;;;4998821;28;20044;-89
2022/05/26 09:32:19;;;;;;;6.10;1.98;;;;;;;;;;5018169;28;20301;-86
2022/05/26 09:35:06;;;;;;;3.22;1.40;;;;;;;;;;5012253;28;20030;-86
2022/05/26 09:37:43;;;;;;;3.35;1.80;;;;;;;;;;5017802;28;20038;-89
2022/05/26 09:40:17;;;;;;;5.07;1.70;;;;;;;;;;5016420;28;20040;-69
2022/05/26 09:42:44;;;;;;;3.47;2.30;;;;;;;;;;5017592;28;20038;-91
2022/05/26 09:45:13;;;;;;;3.80;1.90;;;;;;;;;;5015549;28;20025;-87
2022/05/26 09:47:53;;;;;;;4.53;1.65;;;;;;;;;;5018199;28;20038;-90
2022/05/26 09:50:31;;;;;;;3.70;1.80;;;;;;;;;;5007560;28;20054;-82
2022/05/26 09:52:58;;;;;;;7.60;1.95;;;;;;;;;;5017204;28;20157;-91
2022/05/26 09:55:26;;;;;;;4.75;1.85;;;;;;;;;;5027743;28;20026;-90
2022/05/26 09:58:09;;;;;;;5.30;1.80;;;;;;;;;;5036728;28;20025;-87
2022/05/26 10:00:35;;;;;;;13.07;2.88;;;;;;;;;;5036515;28;20036;-87
2022/05/26 10:03:04;;;;;;;6.70;2.45;;;;;;;;;;4994565;28;20089;-84
2022/05/26 10:05:41;;;;;;;3.58;1.63;;;;;;;;;;5004690;28;20052;-91
2022/05/26 10:08:10;;;;;;;8.95;1.80;;;;;;;;;;5014815;28;20560;-67
2022/05/26 10:10:43;;;;;;;6.47;1.90;;;;;;;;;;4997002;28;20034;-75
2022/05/26 10:13:12;;;;;;;4.53;1.95;;;;;;;;;;5010646;28;20467;-87
2022/05/26 10:15:45;;;;;;;3.08;1.77;;;;;;;;;;5004342;28;20057;-91
2022/05/26 10:18:32;;;;;;;6.68;1.77;;;;;;;;;;5014814;28;20483;-85
2022/05/26 10:21:03;;;;;;;3.53;1.83;;;;;;;;;;5016895;28;20057;-92
2022/05/26 10:23:48;;;;;;;6.47;1.90;;;;;;;;;;4999850;28;20030;-93
2022/05/26 10:26:23;;;;;;;7.95;2.35;;;;;;;;;;5007750;28;20030;-79
2022/05/26 10:29:01;;;;;;;9.13;2.05;;;;;;;;;;5022071;28;20033;-90
2022/05/26 10:31:50;;;;;;;2.40;1.58;;;;;;;;;;5007609;28;20484;-93
2022/05/26 10:34:28;;;;;;;5.40;2.00;;;;;;;;;;4968804;28;20034;-85
2022/05/26 10:37:12;;;;;;;5.70;1.70;;;;;;;;;;4968319;28;20118;-89
2022/05/26 10:39:56;;;;;;;5.68;1.80;;;;;;;;;;4943044;28;20035;-93
2022/05/26 10:42:24;;;;;;;7.97;1.60;;;;;;;;;;4956291;28;20035;-91
2022/05/26 10:45:02;;;;;;;6.82;1.67;;;;;;;;;;4955335;28;20043;-89
2022/05/26 10:47:31;;;;;;;5.47;1.90;;;;;;;;;;4957662;28;20039;-95
2022/05/26 10:49:57;;;;;;;3.88;1.98;;;;;;;;;;4959863;28;20048;-82
2022/05/26 10:52:29;;;;;;;7.88;3.17;;;;;;;;;;4960520;28;20062;-89
2022/05/26 10:55:01;;;;;;;6.43;3.15;;;;;;;;;;4960446;29;20027;-92
2022/05/26 10:57:38;;;;;;;7.65;2.70;;;;;;;;;;4958818;29;20110;-90
2022/05/26 11:00:08;;;;;;;5.70;1.98;;;;;;;;;;4963371;28;20083;-95
2022/05/26 11:02:40;;;;;;;3.20;1.80;;;;;;;;;;4960700;29;20038;-95
2022/05/26 11:05:08;;;;;;;27.70;19.02;;;;;;;;;;4962170;29;20586;-94
2022/05/26 11:07:35;;;;;;;33.88;15.57;;;;;;;;;;4955169;28;20596;-90
2022/05/26 11:10:07;;;;;;;8.57;2.35;;;;;;;;;;4988500;28;20085;-73
2022/05/26 11:12:36;;;;;;;8.18;2.42;;;;;;;;;;5036000;28;20080;-89
2022/05/26 11:18:40;;;;;;;5.55;1.67;;;;;;;;;;5008853;28;20132;-76
2022/05/26 11:21:09;;;;;;;6.97;2.22;;;;;;;;;;5001045;28;20027;-78
2022/05/26 11:23:41;;;;;;;9.18;2.47;;;;;;;;;;4997063;28;20030;-74
2022/05/26 11:26:20;;;;;;;3.28;1.80;;;;;;;;;;4996979;28;20053;-81
2022/05/26 11:28:56;;;;;;;2.50;1.60;;;;;;;;;;4997956;28;20045;-94
2022/05/26 11:37:35;;;;;;;4.55;1.67;;;;;;;;;;5014979;28;20076;-91
2022/05/26 11:40:14;;;;;;;1.60;1.50;;;;;;;;;;5006947;28;20046;-69
2022/05/26 11:42:40;;;;;;;6.22;1.88;;;;;;;;;;5002592;28;20062;-85
2022/05/26 11:45:09;;;;;;;4.35;1.80;;;;;;;;;;5010346;28;20061;-77
2022/05/26 11:47:50;;;;;;;3.88;2.10;;;;;;;;;;5000468;28;20025;-72
2022/05/26 11:50:39;;;;;;;14.18;2.75;;;;;;;;;;5008702;28;20022;-69
2022/05/26 11:53:06;;;;;;;3.55;1.90;;;;;;;;;;4934503;29;20082;-83
2022/05/26 11:55:33;;;;;;;5.30;1.65;;;;;;;;;;4928032;29;20095;-75
2022/05/26 11:58:16;;;;;;;6.78;1.65;;;;;;;;;;4943556;29;20059;-79
2022/05/26 12:00:45;;;;;;;2.92;1.77;;;;;;;;;;4930042;29;20028;-84
2022/05/26 12:03:22;;;;;;;10.43;2.47;;;;;;;;;;4924145;29;20069;-83
2022/05/26 12:05:58;;;;;;;3.13;1.60;;;;;;;;;;4931188;29;20107;-88
2022/05/26 12:08:29;;;;;;;13.00;2.70;;;;;;;;;;4920119;29;20036;-87
2022/05/26 12:10:57;;;;;;;2.50;1.90;;;;;;;;;;4938096;28;20039;-87
2022/05/26 12:13:23;;;;;;;6.32;2.10;;;;;;;;;;4934637;29;20039;-74
2022/05/26 12:16:08;;;;;;;3.03;1.70;;;;;;;;;;4934145;29;20036;-76
2022/05/26 12:18:43;;;;;;;2.38;1.67;;;;;;;;;;4938861;29;20450;-73
2022/05/26 12:21:14;;;;;;;9.90;2.25;;;;;;;;;;4915229;29;20513;-74
2022/05/26 12:23:42;;;;;;;7.22;2.25;;;;;;;;;;4933498;29;20759;-77
2022/05/26 12:26:23;;;;;;;3.95;1.90;;;;;;;;;;4921322;29;20417;-77
2022/05/26 12:28:49;;;;;;;4.50;1.90;;;;;;;;;;4933335;29;20051;-76
2022/05/26 12:31:15;;;;;;;6.20;1.60;;;;;;;;;;5001072;28;20038;-80
2022/05/26 12:33:47;;;;;;;12.82;2.30;;;;;;;;;;5010575;28;20105;-79
2022/05/26 12:36:25;;;;;;;5.28;1.90;;;;;;;;;;5007861;28;20079;-75
2022/05/26 12:39:06;;;;;;;3.70;1.58;;;;;;;;;;5009258;28;20038;-70
2022/05/26 12:41:35;;;;;;;7.95;2.22;;;;;;;;;;5004090;28;20026;-77
2022/05/26 12:44:19;;;;;;;5.65;2.00;;;;;;;;;;5017623;28;20038;-72
2022/05/26 12:47:04;;;;;;;4.28;1.67;;;;;;;;;;5008768;28;20199;-82
2022/05/26 12:49:47;;;;;;;1.38;1.30;;;;;;;;;;5012086;28;20072;-79
2022/05/26 12:52:19;;;;;;;2.92;1.40;;;;;;;;;;5015581;28;20517;-82
2022/05/26 12:54:49;;;;;;;6.47;1.92;;;;;;;;;;5011111;28;20027;-75
2022/05/26 12:57:18;;;;;;;7.85;2.15;;;;;;;;;;5016722;28;20026;-77
2022/05/26 12:59:44;;;;;;;9.68;1.70;;;;;;;;;;5009631;28;20026;-78
2022/05/26 13:02:13;;;;;;;16.88;2.35;;;;;;;;;;5008904;28;20097;-76
2022/05/26 13:04:39;;;;;;;20.27;2.85;;;;;;;;;;5017386;28;20426;-76
2022/05/26 13:07:06;;;;;;;17.52;2.40;;;;;;;;;;4998558;28;20130;-76
2022/05/26 13:09:41;;;;;;;8.00;1.65;;;;;;;;;;5017116;28;20060;-75
2022/05/26 13:12:07;;;;;;;3.33;1.70;;;;;;;;;;5002828;28;20048;-77
2022/05/26 13:14:45;;;;;;;7.18;1.77;;;;;;;;;;5013626;28;20026;-78
2022/05/26 13:17:16;;;;;;;4.95;1.48;;;;;;;;;;5013941;28;20040;-82
2022/05/26 13:19:47;;;;;;;2.92;1.83;;;;;;;;;;4996668;28;20450;-81
2022/05/26 13:22:16;;;;;;;2.20;1.20;;;;;;;;;;5012348;28;20132;-73
2022/05/26 13:24:59;;;;;;;6.28;1.83;;;;;;;;;;5014386;28;20044;-80
2022/05/26 13:27:26;;;;;;;5.90;1.90;;;;;;;;;;4999356;28;20046;-77
2022/05/26 13:29:54;;;;;;;3.00;1.52;;;;;;;;;;5022975;28;20080;-82
2022/05/26 13:35:15;;;;;;;5.28;1.77;;;;;;;;;;5017199;28;20032;-77
2022/05/26 13:37:42;;;;;;;31.27;5.70;;;;;;;;;;5015400;28;20030;-69
2022/05/26 13:40:09;;;;;;;3.40;1.40;;;;;;;;;;5020323;28;20022;-79
2022/05/26 13:42:36;;;;;;;1.83;1.45;;;;;;;;;;4999990;28;20026;-80
2022/05/26 13:45:04;;;;;;;4.05;1.60;;;;;;;;;;5011796;28;20344;-75
2022/05/26 13:47:30;;;;;;;8.60;1.73;;;;;;;;;;4998101;28;20100;-80
2022/05/26 13:49:59;;;;;;;9.40;2.08;;;;;;;;;;4998950;28;20022;-80
2022/05/26 13:52:26;;;;;;;1.77;1.33;;;;;;;;;;5011760;28;20456;-82
2022/05/26 13:54:57;;;;;;;2.35;1.60;;;;;;;;;;5017812;28;20479;-92
2022/05/26 13:57:23;;;;;;;1.90;1.33;;;;;;;;;;5005220;28;20030;-78
2022/05/26 13:59:52;;;;;;;6.07;1.75;;;;;;;;;;5006764;28;20022;-77
2022/05/26 14:02:21;;;;;;;1.95;1.45;;;;;;;;;;5004162;28;20087;-79
2022/05/26 14:04:58;;;;;;;8.88;2.15;;;;;;;;;;5009380;28;20125;-81
2022/05/26 14:07:32;;;;;;;7.07;1.63;;;;;;;;;;5001693;28;20041;-82
2022/05/26 14:10:10;;;;;;;14.43;2.30;;;;;;;;;;5005954;28;20018;-82
2022/05/26 14:12:36;;;;;;;5.78;1.35;;;;;;;;;;4990901;28;20051;-82
2022/05/26 14:15:02;;;;;;;1.83;1.30;;;;;;;;;;4992373;28;20439;-87
2022/05/26 14:17:32;;;;;;;3.40;1.52;;;;;;;;;;5003707;28;20205;-80
2022/05/26 14:19:59;;;;;;;5.38;1.77;;;;;;;;;;5009924;28;20095;-72
2022/05/26 14:22:29;;;;;;;5.07;1.60;;;;;;;;;;5010982;28;20049;-70
2022/05/26 14:24:56;;;;;;;3.50;1.85;;;;;;;;;;5006260;28;20026;-72
2022/05/26 14:27:27;;;;;;;11.68;1.80;;;;;;;;;;5026750;28;20037;-80
2022/05/26 14:30:23;;;;;;;192.55;11.15;;;;;;;;;;5019475;28;20372;-70
2022/05/26 14:32:49;;;;;;;6.15;1.98;;;;;;;;;;5001687;28;20034;-85
2022/05/26 14:35:17;;;;;;;6.40;2.22;;;;;;;;;;4995788;28;20037;-86
2022/05/26 14:37:44;;;;;;;2.03;1.50;;;;;;;;;;4992745;28;20505;-85
2022/05/26 14:40:10;;;;;;;13.25;2.55;;;;;;;;;;5006932;28;20109;-87
2022/05/26 14:42:38;;;;;;;4.88;2.65;;;;;;;;;;5006643;28;20028;-86
2022/05/26 14:45:05;;;;;;;4.00;1.80;;;;;;;;;;4996894;28;20084;-86
2022/05/26 14:47:32;;;;;;;3.65;2.03;;;;;;;;;;5015498;28;20045;-86
2022/05/26 14:49:58;;;;;;;2.10;1.60;;;;;;;;;;5020957;28;20028;-79
2022/05/26 14:52:28;;;;;;;3.40;1.85;;;;;;;;;;5003243;28;20113;-82
2022/05/26 14:57:39;;;;;;;1.77;1.45;;;;;;;;;;4998764;28;20485;-86
2022/05/26 15:00:08;;;;;;;2.03;1.60;;;;;;;;;;5018550;28;20472;-80
2022/05/26 15:02:35;;;;;;;3.65;1.58;;;;;;;;;;5022676;28;20026;-73
2022/05/26 15:05:01;;;;;;;1.50;1.13;;;;;;;;;;5011398;28;20124;-81
2022/05/26 15:07:27;;;;;;;5.93;1.63;;;;;;;;;;4985491;28;20039;-84
2022/05/26 15:09:54;;;;;;;9.13;1.90;;;;;;;;;;5000057;28;20400;-88
2022/05/26 15:12:20;;;;;;;6.95;2.30;;;;;;;;;;5018571;28;20129;-93
2022/05/26 15:14:46;;;;;;;3.63;1.58;;;;;;;;;;5014146;28;20050;-88
2022/05/26 15:17:14;;;;;;;5.10;1.65;;;;;;;;;;4996951;28;20021;-86
2022/05/26 15:19:45;;;;;;;2.88;1.80;;;;;;;;;;5014896;28;20519;-87
2022/05/26 15:22:12;;;;;;;4.25;1.83;;;;;;;;;;4994204;28;20387;-78
2022/05/26 15:24:38;;;;;;;2.90;1.90;;;;;;;;;;5010680;28;20030;-78
2022/05/26 15:27:05;;;;;;;7.95;2.70;;;;;;;;;;5000276;28;20474;-77
2022/05/26 15:29:31;;;;;;;14.63;3.50;;;;;;;;;;5001864;28;20036;-71
2022/05/26 15:31:57;;;;;;;7.63;2.85;;;;;;;;;;5013535;28;20140;-78
2022/05/26 15:34:24;;;;;;;11.60;4.03;;;;;;;;;;5012699;28;20076;-81
2022/05/26 15:36:52;;;;;;;14.25;4.10;;;;;;;;;;4993623;28;20036;-80
2022/05/26 15:39:18;;;;;;;7.47;2.80;;;;;;;;;;5017983;28;20022;-81
2022/05/26 15:41:45;;;;;;;4.20;3.00;;;;;;;;;;4994675;28;20042;-84
2022/05/26 15:44:11;;;;;;;5.63;2.88;;;;;;;;;;5012904;28;20025;-87
2022/05/26 15:46:46;;;;;;;4.72;2.80;;;;;;;;;;5013541;28;20037;-79